Latest Weather Observations for Albury

IDN60801

Issued at 9:02 am EDT Saturday 6 February 2016 (issued every 30 minutes, with the page automatically refreshed every 10 minutes)

About weather observations | Map of weather stations | Latest weather observations for NSW | Other Formats
Station Details ID: 072160 Name: ALBURY AIRPORT AWS Lat: -36.07 Lon: 146.95 Height: 163.5 m
Data from the previous 72 hours. | See also: Recent months at Albury
Date/Time
EDT
Temp
°C
App
Temp
°C
Dew
Point
Rel
Hum
%
Delta-T
°C
Wind Press
QNH
hPa
Press
MSL
hPa
Rain
since 9 am
mm
Dir
 
Spd
km/h
Gust
km/h
Spd
kts
Gust
kts
06/08:30am 19.0 18.7 13.2 69 3.3 SSE 7 11 4 6 1018.7 1017.9 0.0
06/08:00am 17.9 17.6 13.2 74 2.7 S 7 9 4 5 1018.4 1017.6 0.0
06/07:30am 16.6 17.8 13.7 83 1.6 CALM 0 0 0 0 1018.2 1017.4 0.0
06/07:00am 15.0 15.8 12.5 85 1.4 CALM 0 9 0 5 1017.8 1017.0 0.0
06/06:30am 15.1 14.6 12.6 85 1.4 SSE 7 9 4 5 1017.6 1016.8 0.0
06/06:00am 15.8 15.7 12.0 78 2.1 SE 4 7 2 4 1017.3 1016.5 0.0
06/05:30am 16.4 15.8 11.6 73 2.6 NNE 6 9 3 5 1017.2 1016.4 0.0
06/05:00am 17.3 16.0 11.3 68 3.3 NE 9 11 5 6 1017.1 1016.3 0.0
06/04:30am 17.8 15.8 11.6 67 3.4 NNE 13 15 7 8 1017.0 1016.2 0.0
06/04:00am 17.7 16.7 12.2 70 3.1 NNE 9 13 5 7 1017.0 1016.2 0.0
06/03:30am 18.5 18.3 12.9 70 3.2 NE 6 7 3 4 1016.9 1016.1 0.0
06/03:00am 18.7 18.5 12.9 69 3.3 NNE 6 7 3 4 1016.8 1016.0 0.0
06/02:30am 19.1 18.6 12.8 67 3.6 NE 7 9 4 5 1016.9 1016.1 0.0
06/02:00am 19.7 19.2 12.5 63 4.1 NE 7 9 4 5 1017.0 1016.2 0.0
06/01:30am 20.4 19.1 13.6 65 3.9 NE 13 15 7 8 1017.0 1016.2 0.0
06/01:00am 19.7 19.5 13.6 68 3.5 NE 7 9 4 5 1017.1 1016.3 0.0
06/12:30am 21.2 21.4 14.1 64 4.2 ENE 6 7 3 4 1017.2 1016.4 0.0
06/12:00am 20.8 20.8 13.7 64 4.1 NE 6 11 3 6 1017.2 1016.4 0.0
 
Date/Time
EDT
Temp
°C
App
Temp
°C
Dew
Point
Rel
Hum
%
Delta-T
°C
Wind Press
QNH
hPa
Press
MSL
hPa
Rain
since 9 am
mm
Dir
 
Spd
km/h
Gust
km/h
Spd
kts
Gust
kts
05/11:30pm 21.8 21.7 13.9 61 4.6 SE 7 11 4 6 1017.2 1016.4 0.0
05/11:00pm 23.2 23.3 13.9 56 5.5 E 6 9 3 5 1017.2 1016.4 0.0
05/10:30pm 22.6 22.1 13.7 57 5.2 ENE 9 11 5 6 1016.9 1016.1 0.0
05/10:00pm 24.0 23.6 14.1 54 5.9 SSE 9 11 5 6 1016.5 1015.7 0.0
05/09:30pm 24.5 24.2 13.4 50 6.5 SE 7 13 4 7 1016.1 1015.3 0.0
05/09:00pm 24.5 24.5 14.3 53 6.1 SE 7 9 4 5 1015.8 1015.0 0.0
05/08:30pm 25.6 26.1 12.8 45 7.5 ESE 2 7 1 4 1015.2 1014.5 0.0
05/08:00pm 27.6 26.8 11.6 37 9.2 SE 7 9 4 5 1015.0 1014.3 0.0
05/07:30pm 28.6 27.2 10.8 33 10.2 SE 9 11 5 6 1014.8 1014.1 0.0
05/07:00pm 28.9 27.3 10.1 31 10.7 SE 9 13 5 7 1014.7 1014.0 0.0
05/06:30pm 29.0 27.4 10.2 31 10.7 ESE 9 15 5 8 1014.7 1014.0 0.0
05/06:00pm 29.0 28.1 10.6 32 10.5 NE 6 13 3 7 1014.7 1014.0 0.0
05/05:30pm 29.0 27.7 11.1 33 10.3 ESE 9 17 5 9 1014.9 1014.2 0.0
05/05:00pm 28.5 26.6 9.2 30 10.8 ESE 9 15 5 8 1015.1 1014.4 0.0
05/04:30pm 28.6 27.3 9.3 30 10.8 SSE 6 11 3 6 1015.4 1014.7 0.0
05/04:00pm 28.4 26.4 10.1 32 10.3 ESE 11 17 6 9 1015.8 1015.0 0.0
05/03:30pm 28.3 27.4 10.5 33 10.1 SE 6 11 3 6 1016.1 1015.3 0.0
05/03:00pm 27.0 24.9 9.8 34 9.6 SE 11 17 6 9 1016.6 1015.8 0.0
05/02:30pm 26.8 25.0 9.6 34 9.6 SE 9 15 5 8 1016.9 1016.1 0.0
05/02:00pm 26.6 24.2 9.9 35 9.3 S 13 19 7 10 1017.2 1016.4 0.0
05/01:30pm 25.8 23.9 9.2 35 9.1 ENE 9 13 5 7 1017.5 1016.7 0.0
05/01:00pm 24.8 23.2 8.7 36 8.7 SE 7 17 4 9 1017.9 1017.1 0.0
05/12:30pm 24.9 22.7 9.2 37 8.6 ESE 11 20 6 11 1018.3 1017.5 0.0
05/12:00pm 23.8 20.6 8.6 38 8.2 SSE 15 20 8 11 1018.7 1017.9 0.0
05/11:30am 23.1 19.2 7.2 36 8.3 SE 17 24 9 13 1018.9 1018.1 0.0
05/11:00am 23.0 19.2 9.0 41 7.5 SSE 19 24 10 13 1019.2 1018.5 0.0
05/10:30am 21.9 17.6 7.7 40 7.4 SSE 20 26 11 14 1019.1 1018.3 0.0
05/10:00am 21.5 17.5 8.1 42 7.0 SE 19 26 10 14 1019.0 1018.2 0.0
05/09:30am 20.7 17.5 8.4 45 6.5 SSE 15 19 8 10 1019.1 1018.3 0.0
05/09:00am 20.0 16.8 8.4 47 6.1 SE 15 19 8 10 1019.1 1018.3 0.0
05/08:30am 19.3 17.5 9.5 53 5.2 SE 9 17 5 9 1019.0 1018.2 0.0
05/08:00am 18.4 16.2 9.2 55 4.8 SE 11 13 6 7 1018.7 1017.9 0.0
05/07:30am 17.1 16.8 10.2 64 3.7 E 2 9 1 5 1018.3 1017.5 0.0
05/07:00am 14.4 14.4 9.8 74 2.4 CALM 0 0 0 0 1017.9 1017.1 0.0
05/06:30am 14.9 14.3 9.1 68 3.0 NNE 2 6 1 3 1017.6 1016.8 0.0
05/06:00am 15.5 14.1 8.7 64 3.5 NE 6 7 3 4 1017.2 1016.4 0.0
05/05:30am 16.8 14.8 8.8 59 4.1 SE 9 13 5 7 1016.8 1016.0 0.0
05/05:00am 17.1 15.1 8.8 58 4.3 SE 9 15 5 8 1016.7 1015.9 0.0
05/04:30am 17.5 15.2 8.9 57 4.5 SE 11 17 6 9 1016.6 1015.8 0.0
05/04:00am 17.9 15.5 8.5 54 4.9 SE 11 17 6 9 1016.4 1015.6 0.0
05/03:30am 18.1 15.3 8.7 54 4.9 SE 13 20 7 11 1016.1 1015.3 0.0
05/03:00am 18.4 15.6 8.7 53 5.1 SE 13 19 7 10 1016.0 1015.2 0.0
05/02:30am 18.7 16.0 8.9 53 5.2 SE 13 19 7 10 1016.1 1015.3 0.0
05/02:00am 19.1 16.6 9.6 54 5.1 SE 13 19 7 10 1016.1 1015.3 0.0
05/01:30am 19.5 16.4 10.2 55 5.0 SSE 17 24 9 13 1015.9 1015.1 0.0
05/01:00am 20.0 17.1 11.0 56 5.0 SE 17 26 9 14 1016.0 1015.2 0.0
05/12:30am 20.3 17.5 11.5 57 4.9 SE 17 24 9 13 1015.9 1015.1 0.0
05/12:00am 20.6 17.8 11.5 56 5.1 SSE 17 24 9 13 1015.8 1015.0 0.0
 
Date/Time
EDT
Temp
°C
App
Temp
°C
Dew
Point
Rel
Hum
%
Delta-T
°C
Wind Press
QNH
hPa
Press
MSL
hPa
Rain
since 9 am
mm
Dir
 
Spd
km/h
Gust
km/h
Spd
kts
Gust
kts
04/11:30pm 21.0 18.2 11.3 54 5.4 SE 17 28 9 15 1015.8 1015.0 0.0
04/11:00pm 21.5 18.3 11.2 52 5.7 SE 19 28 10 15 1015.5 1014.8 0.0
04/10:30pm 21.8 19.0 11.2 51 5.9 SE 17 26 9 14 1015.3 1014.6 0.0
04/10:00pm 22.3 19.1 11.4 50 6.1 SSE 19 28 10 15 1015.2 1014.5 0.0
04/09:30pm 22.8 19.7 11.5 49 6.4 SSE 19 30 10 16 1014.7 1014.0 0.0
04/09:00pm 23.4 20.3 11.5 47 6.7 SSE 19 26 10 14 1014.4 1013.7 0.0
04/08:30pm 24.1 20.7 11.4 45 7.2 SSE 20 30 11 16 1014.1 1013.4 0.0
04/08:00pm 25.4 21.4 11.9 43 7.8 SSE 24 33 13 18 1013.6 1012.8 0.0
04/07:30pm 26.3 22.2 11.6 40 8.4 SSE 24 35 13 19 1013.1 1012.3 0.0
04/07:00pm 27.3 23.2 11.3 37 9.2 SSE 24 32 13 17 1012.6 1011.8 0.0
04/06:30pm 28.2 23.3 11.3 35 9.7 SE 28 37 15 20 1012.3 1011.5 0.0
04/06:00pm 28.8 24.5 10.9 33 10.3 SE 24 35 13 19 1012.1 1011.3 0.0
04/05:30pm 29.0 24.8 11.1 33 10.3 SE 24 32 13 17 1012.1 1011.3 0.0
04/05:00pm 29.4 26.1 11.5 33 10.4 SE 20 32 11 17 1012.1 1011.3 0.0
04/04:30pm 29.0 24.7 10.6 32 10.5 SE 24 33 13 18 1012.3 1011.5 0.0
04/04:00pm 28.8 25.2 10.5 32 10.4 SE 20 28 11 15 1012.4 1011.6 0.0
04/03:30pm 28.5 24.8 10.2 32 10.4 SSE 20 28 11 15 1012.8 1012.0 0.0
04/03:00pm 28.4 24.7 10.1 32 10.4 SE 20 28 11 15 1013.1 1012.3 0.0
04/02:30pm 28.2 25.5 11.7 36 9.6 SE 17 28 9 15 1013.3 1012.5 0.0
04/02:00pm 27.3 24.3 10.5 35 9.5 SE 17 26 9 14 1013.5 1012.7 0.0
04/01:30pm 27.0 23.4 10.7 36 9.3 SE 20 30 11 16 1013.8 1013.1 0.0
04/01:00pm 26.6 23.0 10.7 37 9.0 ESE 20 28 11 15 1014.0 1013.3 0.0
04/12:30pm 26.3 23.0 11.6 40 8.4 SE 20 26 11 14 1014.3 1013.6 0.0
04/12:00pm 25.6 22.3 11.7 42 8.0 SE 20 26 11 14 1014.4 1013.7 0.0
04/11:30am 24.5 20.2 10.8 42 7.7 SE 24 32 13 17 1014.5 1013.8 0.0
04/11:00am 23.9 20.1 11.3 45 7.1 SE 22 32 12 17 1014.6 1013.9 0.0
04/10:30am 22.7 19.2 10.8 47 6.6 SE 20 28 11 15 1014.6 1013.9 0.0
04/10:00am 22.0 18.1 10.8 49 6.2 SE 22 32 12 17 1014.5 1013.8 0.0
04/09:30am 21.2 17.6 10.7 51 5.8 SE 20 32 11 17 1014.7 1014.0 0.0
04/09:00am 20.0 15.9 10.1 53 5.4 SE 22 33 12 18 1014.7 1014.0 0.4
04/08:30am 19.2 15.3 8.8 51 5.5 SE 19 30 10 16 1014.6 1013.9 0.4
04/08:00am 18.5 14.0 8.7 53 5.1 SE 22 35 12 19 1014.4 1013.7 0.4
04/07:30am 17.7 13.1 8.3 54 4.9 SE 22 30 12 16 1014.1 1013.4 0.4
04/07:00am 17.0 13.6 7.6 54 4.8 SE 15 20 8 11 1013.8 1013.1 0.4
04/06:30am 16.7 12.9 7.4 54 4.7 SE 17 20 9 11 1013.3 1012.5 0.4
04/06:00am 16.8 12.4 7.2 53 4.8 SSE 20 28 11 15 1013.0 1012.2 0.4
04/05:30am 16.7 12.7 6.5 51 5.0 SE 17 28 9 15 1012.5 1011.7 0.4
04/05:00am 16.9 13.7 6.7 51 5.1 SSE 13 24 7 13 1012.0 1011.2 0.4
04/04:30am 17.3 11.9 6.5 49 5.4 SE 24 37 13 20 1011.3 1010.5 0.4
04/04:00am 17.6 14.1 7.1 50 5.3 ENE 15 26 8 14 1011.3 1010.5 0.4
04/03:30am 17.5 13.0 7.0 50 5.3 SE 20 30 11 16 1011.0 1010.2 0.4
04/03:00am 17.4 13.1 8.0 54 4.8 SSE 20 28 11 15 1010.8 1010.0 0.4
04/02:30am 18.3 13.9 8.8 54 5.0 SSE 22 32 12 17 1010.8 1010.0 0.4
04/02:00am 19.0 13.8 10.3 57 4.7 SE 28 46 15 25 1010.9 1010.1 0.4
04/01:55am 19.2 14.0 10.2 56 4.9 SE 28 46 15 25 1010.9 1010.1 0.4
04/01:30am 19.6 16.3 10.9 57 4.8 SE 19 32 10 17 1010.8 1010.0 0.4
04/01:00am 19.7 18.8 12.7 64 4.0 ESE 9 15 5 8 1010.7 1009.9 0.4
04/12:30am 20.4 18.6 13.4 64 4.0 ESE 15 20 8 11 1010.4 1009.6 0.4
04/12:00am 20.3 19.9 14.2 68 3.6 SE 9 15 5 8 1010.2 1009.4 0.4
 
Date/Time
EDT
Temp
°C
App
Temp
°C
Dew
Point
Rel
Hum
%
Delta-T
°C
Wind Press
QNH
hPa
Press
MSL
hPa
Rain
since 9 am
mm
Dir
 
Spd
km/h
Gust
km/h
Spd
kts
Gust
kts
03/11:30pm 20.8 20.0 14.0 65 4.0 SE 11 15 6 8 1010.0 1009.2 0.4
03/11:00pm 19.8 20.9 14.6 72 3.1 SSE 2 7 1 4 1009.8 1009.0 0.4
03/10:30pm 19.9 20.3 14.7 72 3.1 S 6 7 3 4 1009.5 1008.7 0.4
03/10:00pm 20.8 20.7 14.9 69 3.5 SSE 9 13 5 7 1009.2 1008.5 0.4
03/09:30pm 21.2 21.5 15.1 68 3.6 S 7 9 4 5 1008.9 1008.2 0.4
03/09:00pm 22.3 22.6 14.9 63 4.4 SE 7 9 4 5 1008.5 1007.8 0.4
03/08:30pm 23.0 22.6 15.3 62 4.6 SE 11 17 6 9 1008.2 1007.4 0.4
03/08:00pm 23.4 22.7 15.5 61 4.8 SE 13 17 7 9 1007.8 1007.0 0.4
03/07:30pm 23.6 23.1 15.9 62 4.7 SE 13 20 7 11 1007.3 1006.5 0.4
03/07:00pm 23.9 23.3 16.7 64 4.5 SSE 15 20 8 11 1006.7 1005.9 0.4
03/06:30pm 24.1 22.9 17.4 66 4.2 S 20 26 11 14 1006.2 1005.4 0.4
03/06:00pm 24.0 23.3 17.3 66 4.2 SSE 17 22 9 12 1005.8 1005.0 0.4
03/05:30pm 23.8 22.3 16.3 63 4.6 SSE 19 28 10 15 1005.7 1004.9 0.4
03/05:00pm 23.1 21.5 16.4 66 4.1 SSE 20 30 11 16 1005.6 1004.8 0.4
03/04:30pm 24.0 22.0 16.5 63 4.6 SSE 22 30 12 16 1005.4 1004.6 0.4
03/04:00pm 24.4 24.1 16.4 61 4.9 ESE 13 19 7 10 1005.1 1004.3 0.4
03/03:30pm 23.7 24.8 17.9 70 3.6 E 9 13 5 7 1005.2 1004.4 0.4
03/03:00pm 22.6 22.8 17.7 74 3.1 E 13 17 7 9 1005.2 1004.4 0.4
03/02:30pm 23.4 23.7 16.9 67 4.0 ESE 11 17 6 9 1005.0 1004.2 0.0
03/02:00pm 22.5 20.8 16.3 68 3.8 S 20 26 11 14 1005.0 1004.2 0.0
03/01:30pm 24.3 23.8 16.0 60 5.1 S 13 17 7 9 1004.9 1004.1 0.0
03/01:00pm 24.2 22.7 15.4 58 5.3 S 17 24 9 13 1004.7 1003.9 0.0
03/12:30pm 25.3 24.3 15.6 55 5.9 S 15 19 8 10 1004.6 1003.8 0.0
03/12:00pm 25.3 25.4 15.6 55 5.9 SSE 9 15 5 8 1004.6 1003.8 0.0
03/11:30am 24.3 23.8 16.0 60 5.1 SE 13 17 7 9 1004.7 1003.9 0.0
03/11:00am 23.6 24.4 16.4 64 4.4 S 7 11 4 6 1004.6 1003.8 0.0
03/10:30am 22.8 24.8 16.1 66 4.1 CALM 0 0 0 0 1004.3 1003.5 0.0
03/10:00am 22.0 22.2 16.7 72 3.3 SSW 11 11 6 6 1004.0 1003.2 0.0
03/09:30am 21.7 22.3 16.9 74 3.0 W 9 11 5 6 1004.0 1003.2 0.0

Other Formats:

Comma delimited format used in spreadsheet applications
http://www.bom.gov.au/fwo/IDN60801/IDN60801.95896.axf

JavaScript Object Notation format (JSON) in row-major order
http://www.bom.gov.au/fwo/IDN60801/IDN60801.95896.json